Aeroporto :
LOGIN :

Iscrizione | Disclaimer

   EN    FR    IT 

 










Sommario :    VFR   VFR Marginale   IFR   IFR Intensivo   IFR Molto Intensivo
Visibilità : 
Base nubi : 
>= 8 km
>= 3000ft
5 / 8 km
1000 / 3000 ft
1500m / 5 km
500 / 1000 ft
800 / 1500m
200 / 500 ft
< 800m
< 200 ft
Simboli :   Temporali  Nebbia  Neve Forte  Precipitazioni Forti  Vento > 20 kt
SIGMETs :   Varie  Temporali  Ghiacco  Turbolenza  Onda orograficha  Ceneri Vulcaniche






- Altitudine del aeroporto : 472 ft
- Codice IATA : GME


UMGG - Gomel

ULTIMO METAR :
  • 270930Z 11002MPS 9999 SCT017CB BKN100 14/10 Q1025 R10/290050 NOSIG

METARs OBSOLETI :
  • 270900Z 12002MPS 9999 SCT020CB BKN100 14/10 Q1025 R10/290050 NOSIG
  • 270830Z 10002MPS 9999 SCT027CB BKN100 13/10 Q1025 R10/290050 NOSIG
  • 270800Z VRB01MPS 9999 SCT030CB BKN100 13/10 Q1025 R10/290050 NOSIG
  • 270730Z VRB01MPS 9999 SCT027CB OVC100 12/10 Q1025 R10/290050 NOSIG
  • 270700Z VRB01MPS 9999 SCT037CB OVC100 12/10 Q1025 R10/290050 NOSIG

TAF TAF UMGG
Valido dal 27 a 06 ore il 28 a 06 ore UTC


270501Z 2706/2806 04005MPS 6000 BKN020
TEMPO 2706/2708 3000 -SHRA BKN020CB
TEMPO 2708/2720 06008MPS 2000 TSRA BKN025CB
FM272000 06005MPS 2000 BR BKN005
TEMPO 2720/2804 VRB02MPS 0400 FG VV002



MetMap, La meteo Aeronautica in un colpo d'occhio ! - Copyright ORBIFLY Dicembre 2007 - Disclaimer

ORBIFLY MET'MAP TEAM :

Programmazione e sviluppo : Alexandra Zaïnal
Concezione : Baudouin d'Aumeries
Aiuto per la programmazione : Marc-Olivier Méhu
Supporto tecnico e logistico : Manuel Goepfert
Aiuto per la traduzione : Arnaldo La Scala

Contatto : metmap@orbifly.com




FONTI E CREDITI :

   NOAA